sensor_id;sensor_type;location;lat;lon;timestamp;P1;durP1;ratioP1;P2;durP2;ratioP2
13325;SDS011;6732;51.044;3.746;2022-07-23T00:00:57;5.93;;;4.38;;
13325;SDS011;6732;51.044;3.746;2022-07-23T00:03:23;5.28;;;4.50;;
13325;SDS011;6732;51.044;3.746;2022-07-23T00:05:49;6.65;;;4.63;;
13325;SDS011;6732;51.044;3.746;2022-07-23T00:08:15;4.88;;;3.78;;
13325;SDS011;6732;51.044;3.746;2022-07-23T00:10:41;7.07;;;4.43;;
13325;SDS011;6732;51.044;3.746;2022-07-23T00:13:07;4.50;;;4.10;;
13325;SDS011;6732;51.044;3.746;2022-07-23T00:15:33;9.52;;;4.28;;
13325;SDS011;6732;51.044;3.746;2022-07-23T00:17:59;9.13;;;5.03;;
13325;SDS011;6732;51.044;3.746;2022-07-23T00:20:25;8.15;;;4.72;;
13325;SDS011;6732;51.044;3.746;2022-07-23T00:22:52;5.57;;;4.43;;
13325;SDS011;6732;51.044;3.746;2022-07-23T00:25:21;7.57;;;4.88;;
13325;SDS011;6732;51.044;3.746;2022-07-23T00:27:48;5.57;;;4.80;;
13325;SDS011;6732;51.044;3.746;2022-07-23T00:30:14;5.90;;;4.72;;
13325;SDS011;6732;51.044;3.746;2022-07-23T00:32:53;5.65;;;4.70;;
13325;SDS011;6732;51.044;3.746;2022-07-23T00:35:24;6.20;;;4.85;;
13325;SDS011;6732;51.044;3.746;2022-07-23T00:37:52;5.63;;;4.57;;
13325;SDS011;6732;51.044;3.746;2022-07-23T00:40:18;4.70;;;4.15;;
13325;SDS011;6732;51.044;3.746;2022-07-23T00:42:44;6.20;;;4.68;;
13325;SDS011;6732;51.044;3.746;2022-07-23T00:45:10;5.50;;;4.75;;
13325;SDS011;6732;51.044;3.746;2022-07-23T00:47:36;5.95;;;4.47;;
13325;SDS011;6732;51.044;3.746;2022-07-23T00:50:06;6.15;;;4.50;;
13325;SDS011;6732;51.044;3.746;2022-07-23T00:52:34;6.78;;;5.18;;
13325;SDS011;6732;51.044;3.746;2022-07-23T00:55:01;5.60;;;4.93;;
13325;SDS011;6732;51.044;3.746;2022-07-23T00:57:28;6.00;;;5.03;;
13325;SDS011;6732;51.044;3.746;2022-07-23T00:59:55;5.80;;;4.88;;
13325;SDS011;6732;51.044;3.746;2022-07-23T01:02:21;7.05;;;5.45;;
13325;SDS011;6732;51.044;3.746;2022-07-23T01:04:47;5.53;;;4.93;;
13325;SDS011;6732;51.044;3.746;2022-07-23T01:07:13;5.97;;;4.65;;
13325;SDS011;6732;51.044;3.746;2022-07-23T01:09:39;6.68;;;5.28;;
13325;SDS011;6732;51.044;3.746;2022-07-23T01:12:06;6.53;;;4.72;;
13325;SDS011;6732;51.044;3.746;2022-07-23T01:14:32;7.60;;;5.07;;
13325;SDS011;6732;51.044;3.746;2022-07-23T01:16:58;5.40;;;4.88;;
13325;SDS011;6732;51.044;3.746;2022-07-23T01:19:24;6.05;;;5.20;;
13325;SDS011;6732;51.044;3.746;2022-07-23T01:21:51;6.05;;;5.22;;
13325;SDS011;6732;51.044;3.746;2022-07-23T01:24:18;7.03;;;5.32;;
13325;SDS011;6732;51.044;3.746;2022-07-23T01:26:45;9.80;;;5.55;;
13325;SDS011;6732;51.044;3.746;2022-07-23T01:29:12;5.10;;;4.50;;
13325;SDS011;6732;51.044;3.746;2022-07-23T01:31:39;6.35;;;5.43;;
13325;SDS011;6732;51.044;3.746;2022-07-23T01:34:05;6.03;;;5.10;;
13325;SDS011;6732;51.044;3.746;2022-07-23T01:36:33;6.40;;;5.70;;
13325;SDS011;6732;51.044;3.746;2022-07-23T01:38:59;7.05;;;5.32;;
13325;SDS011;6732;51.044;3.746;2022-07-23T01:41:25;7.03;;;5.35;;
13325;SDS011;6732;51.044;3.746;2022-07-23T01:43:51;5.68;;;4.97;;
13325;SDS011;6732;51.044;3.746;2022-07-23T01:46:17;7.13;;;5.70;;
13325;SDS011;6732;51.044;3.746;2022-07-23T01:48:43;11.13;;;5.50;;
13325;SDS011;6732;51.044;3.746;2022-07-23T01:51:09;7.13;;;5.60;;
13325;SDS011;6732;51.044;3.746;2022-07-23T01:53:35;8.55;;;5.50;;
13325;SDS011;6732;51.044;3.746;2022-07-23T01:56:01;6.00;;;5.28;;
13325;SDS011;6732;51.044;3.746;2022-07-23T01:58:28;6.43;;;5.43;;
13325;SDS011;6732;51.044;3.746;2022-07-23T02:00:54;7.45;;;5.25;;
13325;SDS011;6732;51.044;3.746;2022-07-23T02:03:21;5.88;;;5.28;;
13325;SDS011;6732;51.044;3.746;2022-07-23T02:05:48;10.15;;;6.20;;
13325;SDS011;6732;51.044;3.746;2022-07-23T02:08:14;8.38;;;5.50;;
13325;SDS011;6732;51.044;3.746;2022-07-23T02:10:40;7.13;;;5.20;;
13325;SDS011;6732;51.044;3.746;2022-07-23T02:13:06;7.60;;;5.72;;
13325;SDS011;6732;51.044;3.746;2022-07-23T02:15:32;6.97;;;5.60;;
13325;SDS011;6732;51.044;3.746;2022-07-23T02:17:58;6.13;;;5.22;;
13325;SDS011;6732;51.044;3.746;2022-07-23T02:20:25;7.78;;;5.82;;
13325;SDS011;6732;51.044;3.746;2022-07-23T02:22:51;6.70;;;5.43;;
13325;SDS011;6732;51.044;3.746;2022-07-23T02:25:17;7.50;;;5.80;;
13325;SDS011;6732;51.044;3.746;2022-07-23T02:27:43;7.68;;;5.28;;
13325;SDS011;6732;51.044;3.746;2022-07-23T02:30:10;9.05;;;5.50;;
13325;SDS011;6732;51.044;3.746;2022-07-23T02:32:37;8.98;;;5.68;;
13325;SDS011;6732;51.044;3.746;2022-07-23T02:35:05;6.05;;;5.20;;
13325;SDS011;6732;51.044;3.746;2022-07-23T02:37:31;6.60;;;5.80;;
13325;SDS011;6732;51.044;3.746;2022-07-23T02:39:57;6.10;;;5.50;;
13325;SDS011;6732;51.044;3.746;2022-07-23T02:42:23;10.07;;;5.90;;
13325;SDS011;6732;51.044;3.746;2022-07-23T02:44:50;8.23;;;6.00;;
13325;SDS011;6732;51.044;3.746;2022-07-23T02:47:17;6.55;;;5.85;;
13325;SDS011;6732;51.044;3.746;2022-07-23T02:49:43;6.70;;;5.93;;
13325;SDS011;6732;51.044;3.746;2022-07-23T02:52:08;5.95;;;5.35;;
13325;SDS011;6732;51.044;3.746;2022-07-23T02:54:37;6.57;;;5.80;;
13325;SDS011;6732;51.044;3.746;2022-07-23T02:57:03;7.43;;;6.15;;
13325;SDS011;6732;51.044;3.746;2022-07-23T02:59:29;7.53;;;6.10;;
13325;SDS011;6732;51.044;3.746;2022-07-23T03:01:55;6.75;;;5.70;;
13325;SDS011;6732;51.044;3.746;2022-07-23T03:04:21;6.75;;;5.38;;
13325;SDS011;6732;51.044;3.746;2022-07-23T03:06:47;9.90;;;6.38;;
13325;SDS011;6732;51.044;3.746;2022-07-23T03:09:13;8.13;;;6.20;;
13325;SDS011;6732;51.044;3.746;2022-07-23T03:11:39;8.23;;;5.93;;
13325;SDS011;6732;51.044;3.746;2022-07-23T03:14:05;7.40;;;5.93;;
13325;SDS011;6732;51.044;3.746;2022-07-23T03:16:32;7.05;;;5.70;;
13325;SDS011;6732;51.044;3.746;2022-07-23T03:18:58;9.52;;;6.40;;
13325;SDS011;6732;51.044;3.746;2022-07-23T03:21:23;7.32;;;5.53;;
13325;SDS011;6732;51.044;3.746;2022-07-23T03:23:49;7.82;;;5.97;;
13325;SDS011;6732;51.044;3.746;2022-07-23T03:26:15;9.50;;;5.75;;
13325;SDS011;6732;51.044;3.746;2022-07-23T03:28:41;8.35;;;5.82;;
13325;SDS011;6732;51.044;3.746;2022-07-23T03:31:07;6.82;;;6.07;;
13325;SDS011;6732;51.044;3.746;2022-07-23T03:33:33;7.60;;;6.20;;
13325;SDS011;6732;51.044;3.746;2022-07-23T03:35:59;8.85;;;6.20;;
13325;SDS011;6732;51.044;3.746;2022-07-23T03:38:25;7.47;;;5.95;;
13325;SDS011;6732;51.044;3.746;2022-07-23T03:40:51;7.30;;;5.85;;
13325;SDS011;6732;51.044;3.746;2022-07-23T03:43:17;7.10;;;6.00;;
13325;SDS011;6732;51.044;3.746;2022-07-23T03:45:43;9.07;;;5.72;;
13325;SDS011;6732;51.044;3.746;2022-07-23T03:48:09;8.20;;;6.35;;
13325;SDS011;6732;51.044;3.746;2022-07-23T03:50:35;10.77;;;6.80;;
13325;SDS011;6732;51.044;3.746;2022-07-23T03:53:02;8.07;;;6.95;;
13325;SDS011;6732;51.044;3.746;2022-07-23T03:55:28;8.98;;;6.70;;
13325;SDS011;6732;51.044;3.746;2022-07-23T03:57:54;10.27;;;6.90;;
13325;SDS011;6732;51.044;3.746;2022-07-23T04:00:20;7.78;;;6.38;;
13325;SDS011;6732;51.044;3.746;2022-07-23T04:02:46;9.93;;;7.13;;
13325;SDS011;6732;51.044;3.746;2022-07-23T04:05:12;9.80;;;6.85;;
13325;SDS011;6732;51.044;3.746;2022-07-23T04:07:38;9.48;;;6.47;;
13325;SDS011;6732;51.044;3.746;2022-07-23T04:10:05;8.23;;;6.80;;
13325;SDS011;6732;51.044;3.746;2022-07-23T04:12:31;8.38;;;6.70;;
13325;SDS011;6732;51.044;3.746;2022-07-23T04:14:57;9.85;;;6.53;;
13325;SDS011;6732;51.044;3.746;2022-07-23T04:17:23;8.25;;;6.85;;
13325;SDS011;6732;51.044;3.746;2022-07-23T04:19:49;10.20;;;7.15;;
13325;SDS011;6732;51.044;3.746;2022-07-23T04:22:15;8.50;;;6.88;;
13325;SDS011;6732;51.044;3.746;2022-07-23T04:24:41;9.23;;;6.60;;
13325;SDS011;6732;51.044;3.746;2022-07-23T04:27:07;7.63;;;6.50;;
13325;SDS011;6732;51.044;3.746;2022-07-23T04:29:33;11.02;;;6.35;;
13325;SDS011;6732;51.044;3.746;2022-07-23T04:31:58;9.38;;;7.20;;
13325;SDS011;6732;51.044;3.746;2022-07-23T04:34:24;9.75;;;6.57;;
13325;SDS011;6732;51.044;3.746;2022-07-23T04:36:52;11.07;;;7.40;;
13325;SDS011;6732;51.044;3.746;2022-07-23T04:39:19;8.75;;;6.93;;
13325;SDS011;6732;51.044;3.746;2022-07-23T04:41:45;9.57;;;6.97;;
13325;SDS011;6732;51.044;3.746;2022-07-23T04:44:11;8.63;;;6.93;;
13325;SDS011;6732;51.044;3.746;2022-07-23T04:46:37;9.05;;;6.95;;
13325;SDS011;6732;51.044;3.746;2022-07-23T04:49:03;8.60;;;7.00;;
13325;SDS011;6732;51.044;3.746;2022-07-23T04:51:29;10.45;;;7.03;;
13325;SDS011;6732;51.044;3.746;2022-07-23T04:53:55;8.88;;;7.43;;
13325;SDS011;6732;51.044;3.746;2022-07-23T04:56:21;9.55;;;7.38;;
13325;SDS011;6732;51.044;3.746;2022-07-23T04:58:47;9.30;;;7.03;;
13325;SDS011;6732;51.044;3.746;2022-07-23T05:01:13;10.65;;;7.75;;
13325;SDS011;6732;51.044;3.746;2022-07-23T05:03:39;10.50;;;7.40;;
13325;SDS011;6732;51.044;3.746;2022-07-23T05:06:05;9.40;;;6.97;;
13325;SDS011;6732;51.044;3.746;2022-07-23T05:08:31;11.70;;;7.65;;
13325;SDS011;6732;51.044;3.746;2022-07-23T05:10:57;9.25;;;7.40;;
13325;SDS011;6732;51.044;3.746;2022-07-23T05:13:23;10.75;;;7.38;;
13325;SDS011;6732;51.044;3.746;2022-07-23T05:15:49;10.52;;;7.68;;
13325;SDS011;6732;51.044;3.746;2022-07-23T05:18:15;9.85;;;7.35;;
13325;SDS011;6732;51.044;3.746;2022-07-23T05:20:41;8.82;;;7.13;;
13325;SDS011;6732;51.044;3.746;2022-07-23T05:23:07;8.93;;;7.20;;
13325;SDS011;6732;51.044;3.746;2022-07-23T05:25:33;10.50;;;7.72;;
13325;SDS011;6732;51.044;3.746;2022-07-23T05:27:59;11.25;;;7.22;;
13325;SDS011;6732;51.044;3.746;2022-07-23T05:30:25;10.13;;;7.20;;
13325;SDS011;6732;51.044;3.746;2022-07-23T05:32:51;8.55;;;6.63;;
13325;SDS011;6732;51.044;3.746;2022-07-23T05:35:17;8.45;;;6.65;;
13325;SDS011;6732;51.044;3.746;2022-07-23T05:37:43;8.45;;;7.55;;
13325;SDS011;6732;51.044;3.746;2022-07-23T05:40:09;10.93;;;8.65;;
13325;SDS011;6732;51.044;3.746;2022-07-23T05:42:36;11.57;;;8.75;;
13325;SDS011;6732;51.044;3.746;2022-07-23T05:45:04;10.80;;;7.88;;
13325;SDS011;6732;51.044;3.746;2022-07-23T05:47:43;10.18;;;9.18;;
13325;SDS011;6732;51.044;3.746;2022-07-23T05:50:13;10.52;;;9.43;;
13325;SDS011;6732;51.044;3.746;2022-07-23T05:52:41;10.27;;;7.90;;
13325;SDS011;6732;51.044;3.746;2022-07-23T05:55:07;10.95;;;8.18;;
13325;SDS011;6732;51.044;3.746;2022-07-23T05:57:34;11.32;;;8.82;;
13325;SDS011;6732;51.044;3.746;2022-07-23T06:00:01;9.93;;;7.90;;
13325;SDS011;6732;51.044;3.746;2022-07-23T06:02:29;11.50;;;7.35;;
13325;SDS011;6732;51.044;3.746;2022-07-23T06:04:55;9.20;;;7.43;;
13325;SDS011;6732;51.044;3.746;2022-07-23T06:07:21;11.15;;;7.47;;
13325;SDS011;6732;51.044;3.746;2022-07-23T06:09:47;8.50;;;7.10;;
13325;SDS011;6732;51.044;3.746;2022-07-23T06:12:15;10.32;;;7.85;;
13325;SDS011;6732;51.044;3.746;2022-07-23T06:14:41;9.55;;;7.35;;
13325;SDS011;6732;51.044;3.746;2022-07-23T06:17:07;9.70;;;7.05;;
13325;SDS011;6732;51.044;3.746;2022-07-23T06:19:33;9.82;;;6.97;;
13325;SDS011;6732;51.044;3.746;2022-07-23T06:21:59;8.05;;;7.20;;
13325;SDS011;6732;51.044;3.746;2022-07-23T06:24:25;7.97;;;6.53;;
13325;SDS011;6732;51.044;3.746;2022-07-23T06:26:51;8.90;;;7.00;;
13325;SDS011;6732;51.044;3.746;2022-07-23T06:29:17;10.70;;;7.00;;
13325;SDS011;6732;51.044;3.746;2022-07-23T06:31:43;10.50;;;7.28;;
13325;SDS011;6732;51.044;3.746;2022-07-23T06:34:09;9.07;;;6.88;;
13325;SDS011;6732;51.044;3.746;2022-07-23T06:36:35;8.75;;;7.13;;
13325;SDS011;6732;51.044;3.746;2022-07-23T06:39:01;9.88;;;6.85;;
13325;SDS011;6732;51.044;3.746;2022-07-23T06:41:27;8.75;;;6.90;;
13325;SDS011;6732;51.044;3.746;2022-07-23T06:43:53;13.82;;;7.70;;
13325;SDS011;6732;51.044;3.746;2022-07-23T06:46:19;13.30;;;7.53;;
13325;SDS011;6732;51.044;3.746;2022-07-23T06:48:46;10.23;;;8.15;;
13325;SDS011;6732;51.044;3.746;2022-07-23T06:51:12;13.38;;;7.60;;
13325;SDS011;6732;51.044;3.746;2022-07-23T06:53:38;9.90;;;7.15;;
13325;SDS011;6732;51.044;3.746;2022-07-23T06:56:04;11.30;;;7.43;;
13325;SDS011;6732;51.044;3.746;2022-07-23T06:58:30;9.25;;;7.45;;
13325;SDS011;6732;51.044;3.746;2022-07-23T07:00:56;10.93;;;7.53;;
13325;SDS011;6732;51.044;3.746;2022-07-23T07:03:22;9.82;;;7.28;;
13325;SDS011;6732;51.044;3.746;2022-07-23T07:05:48;9.70;;;7.30;;
13325;SDS011;6732;51.044;3.746;2022-07-23T07:08:15;10.68;;;7.00;;
13325;SDS011;6732;51.044;3.746;2022-07-23T07:10:41;9.40;;;7.00;;
13325;SDS011;6732;51.044;3.746;2022-07-23T07:13:07;9.60;;;6.80;;
13325;SDS011;6732;51.044;3.746;2022-07-23T07:15:33;13.07;;;6.70;;
13325;SDS011;6732;51.044;3.746;2022-07-23T07:18:00;10.15;;;7.20;;
13325;SDS011;6732;51.044;3.746;2022-07-23T07:20:26;7.45;;;6.00;;
13325;SDS011;6732;51.044;3.746;2022-07-23T07:22:52;8.85;;;6.00;;
13325;SDS011;6732;51.044;3.746;2022-07-23T07:25:17;10.93;;;6.30;;
13325;SDS011;6732;51.044;3.746;2022-07-23T07:27:43;8.13;;;6.20;;
13325;SDS011;6732;51.044;3.746;2022-07-23T07:30:09;8.10;;;6.38;;
13325;SDS011;6732;51.044;3.746;2022-07-23T07:32:36;8.35;;;6.32;;
13325;SDS011;6732;51.044;3.746;2022-07-23T07:35:03;8.27;;;6.07;;
13325;SDS011;6732;51.044;3.746;2022-07-23T07:37:29;11.77;;;6.38;;
13325;SDS011;6732;51.044;3.746;2022-07-23T07:39:55;6.85;;;5.57;;
13325;SDS011;6732;51.044;3.746;2022-07-23T07:42:21;10.13;;;7.20;;
13325;SDS011;6732;51.044;3.746;2022-07-23T07:44:47;9.90;;;5.75;;
13325;SDS011;6732;51.044;3.746;2022-07-23T07:47:13;8.88;;;5.97;;
13325;SDS011;6732;51.044;3.746;2022-07-23T07:49:41;9.48;;;6.00;;
13325;SDS011;6732;51.044;3.746;2022-07-23T07:52:10;7.57;;;5.65;;
13325;SDS011;6732;51.044;3.746;2022-07-23T07:54:36;8.50;;;6.20;;
13325;SDS011;6732;51.044;3.746;2022-07-23T07:57:02;7.88;;;6.32;;
13325;SDS011;6732;51.044;3.746;2022-07-23T07:59:28;9.43;;;6.88;;
13325;SDS011;6732;51.044;3.746;2022-07-23T08:01:54;10.05;;;6.78;;
13325;SDS011;6732;51.044;3.746;2022-07-23T08:04:20;9.20;;;6.03;;
13325;SDS011;6732;51.044;3.746;2022-07-23T08:06:46;10.65;;;6.72;;
13325;SDS011;6732;51.044;3.746;2022-07-23T08:09:12;11.23;;;6.47;;
13325;SDS011;6732;51.044;3.746;2022-07-23T08:11:38;8.18;;;6.57;;
13325;SDS011;6732;51.044;3.746;2022-07-23T08:14:04;8.68;;;5.90;;
13325;SDS011;6732;51.044;3.746;2022-07-23T08:16:30;10.23;;;6.82;;
13325;SDS011;6732;51.044;3.746;2022-07-23T08:18:56;8.55;;;6.07;;
13325;SDS011;6732;51.044;3.746;2022-07-23T08:21:22;9.60;;;6.82;;
13325;SDS011;6732;51.044;3.746;2022-07-23T08:23:48;9.55;;;6.70;;
13325;SDS011;6732;51.044;3.746;2022-07-23T08:26:14;11.52;;;6.78;;
13325;SDS011;6732;51.044;3.746;2022-07-23T08:28:40;9.95;;;6.35;;
13325;SDS011;6732;51.044;3.746;2022-07-23T08:31:06;10.13;;;6.43;;
13325;SDS011;6732;51.044;3.746;2022-07-23T08:33:32;7.72;;;5.80;;
13325;SDS011;6732;51.044;3.746;2022-07-23T08:35:58;7.20;;;6.05;;
13325;SDS011;6732;51.044;3.746;2022-07-23T08:38:25;8.23;;;6.57;;
13325;SDS011;6732;51.044;3.746;2022-07-23T08:40:52;7.90;;;5.90;;
13325;SDS011;6732;51.044;3.746;2022-07-23T08:43:20;9.00;;;6.18;;
13325;SDS011;6732;51.044;3.746;2022-07-23T08:45:48;7.32;;;5.57;;
13325;SDS011;6732;51.044;3.746;2022-07-23T08:48:20;6.13;;;5.10;;
13325;SDS011;6732;51.044;3.746;2022-07-23T08:50:53;6.13;;;5.47;;
13325;SDS011;6732;51.044;3.746;2022-07-23T08:53:25;8.98;;;5.90;;
13325;SDS011;6732;51.044;3.746;2022-07-23T08:55:53;5.72;;;5.07;;
13325;SDS011;6732;51.044;3.746;2022-07-23T08:58:21;8.75;;;5.40;;
13325;SDS011;6732;51.044;3.746;2022-07-23T09:00:48;6.38;;;5.32;;
13325;SDS011;6732;51.044;3.746;2022-07-23T09:03:15;5.75;;;4.88;;
13325;SDS011;6732;51.044;3.746;2022-07-23T09:05:45;9.05;;;5.32;;
13325;SDS011;6732;51.044;3.746;2022-07-23T09:08:13;6.15;;;5.55;;
13325;SDS011;6732;51.044;3.746;2022-07-23T09:15:52;5.65;;;5.05;;
13325;SDS011;6732;51.044;3.746;2022-07-23T09:18:19;8.15;;;5.13;;
13325;SDS011;6732;51.044;3.746;2022-07-23T09:21:04;7.07;;;5.28;;
13325;SDS011;6732;51.044;3.746;2022-07-23T09:23:36;6.45;;;5.07;;
13325;SDS011;6732;51.044;3.746;2022-07-23T09:26:11;8.57;;;5.25;;
13325;SDS011;6732;51.044;3.746;2022-07-23T09:28:50;7.68;;;4.63;;
13325;SDS011;6732;51.044;3.746;2022-07-23T09:31:18;8.05;;;4.75;;
13325;SDS011;6732;51.044;3.746;2022-07-23T09:33:44;9.02;;;4.90;;
13325;SDS011;6732;51.044;3.746;2022-07-23T09:36:11;7.88;;;4.75;;
13325;SDS011;6732;51.044;3.746;2022-07-23T09:38:47;5.35;;;4.53;;
13325;SDS011;6732;51.044;3.746;2022-07-23T09:41:16;7.25;;;4.93;;
13325;SDS011;6732;51.044;3.746;2022-07-23T09:43:42;6.28;;;4.30;;
13325;SDS011;6732;51.044;3.746;2022-07-23T09:46:18;5.10;;;4.60;;
13325;SDS011;6732;51.044;3.746;2022-07-23T09:48:52;13.10;;;4.35;;
13325;SDS011;6732;51.044;3.746;2022-07-23T09:51:22;6.53;;;4.40;;
13325;SDS011;6732;51.044;3.746;2022-07-23T09:54:01;6.22;;;4.28;;
13325;SDS011;6732;51.044;3.746;2022-07-23T09:56:28;4.63;;;4.22;;
13325;SDS011;6732;51.044;3.746;2022-07-23T09:58:55;5.95;;;4.10;;
13325;SDS011;6732;51.044;3.746;2022-07-23T10:01:43;5.22;;;4.20;;
13325;SDS011;6732;51.044;3.746;2022-07-23T10:04:10;5.68;;;3.92;;
13325;SDS011;6732;51.044;3.746;2022-07-23T10:06:40;5.82;;;3.60;;
13325;SDS011;6732;51.044;3.746;2022-07-23T10:09:09;3.78;;;3.33;;
13325;SDS011;6732;51.044;3.746;2022-07-23T10:11:37;5.80;;;4.03;;
13325;SDS011;6732;51.044;3.746;2022-07-23T10:14:04;5.07;;;3.42;;
13325;SDS011;6732;51.044;3.746;2022-07-23T10:16:31;4.65;;;3.45;;
13325;SDS011;6732;51.044;3.746;2022-07-23T10:18:57;4.57;;;3.85;;
13325;SDS011;6732;51.044;3.746;2022-07-23T10:21:34;4.13;;;3.30;;
13325;SDS011;6732;51.044;3.746;2022-07-23T10:24:12;6.00;;;2.85;;
13325;SDS011;6732;51.044;3.746;2022-07-23T10:30:02;4.35;;;2.95;;
13325;SDS011;6732;51.044;3.746;2022-07-23T10:35:31;3.97;;;2.90;;
13325;SDS011;6732;51.044;3.746;2022-07-23T10:38:02;4.15;;;3.47;;
13325;SDS011;6732;51.044;3.746;2022-07-23T10:40:34;3.42;;;3.00;;
13325;SDS011;6732;51.044;3.746;2022-07-23T10:43:00;4.10;;;2.95;;
13325;SDS011;6732;51.044;3.746;2022-07-23T10:45:28;2.90;;;2.40;;
13325;SDS011;6732;51.044;3.746;2022-07-23T10:51:07;3.03;;;2.72;;
13325;SDS011;6732;51.044;3.746;2022-07-23T10:56:17;7.78;;;3.38;;
13325;SDS011;6732;51.044;3.746;2022-07-23T10:59:04;3.40;;;2.75;;
13325;SDS011;6732;51.044;3.746;2022-07-23T11:01:34;3.50;;;2.67;;
13325;SDS011;6732;51.044;3.746;2022-07-23T11:04:01;4.57;;;2.85;;
13325;SDS011;6732;51.044;3.746;2022-07-23T11:09:24;3.88;;;3.03;;
13325;SDS011;6732;51.044;3.746;2022-07-23T11:17:58;5.72;;;3.38;;
13325;SDS011;6732;51.044;3.746;2022-07-23T11:20:27;4.57;;;3.05;;
13325;SDS011;6732;51.044;3.746;2022-07-23T11:22:57;2.97;;;2.63;;
13325;SDS011;6732;51.044;3.746;2022-07-23T11:27:55;3.92;;;3.00;;
13325;SDS011;6732;51.044;3.746;2022-07-23T11:30:38;3.63;;;2.53;;
13325;SDS011;6732;51.044;3.746;2022-07-23T11:35:38;4.18;;;2.50;;
13325;SDS011;6732;51.044;3.746;2022-07-23T11:38:20;2.65;;;2.40;;
13325;SDS011;6732;51.044;3.746;2022-07-23T11:40:51;2.70;;;2.28;;
13325;SDS011;6732;51.044;3.746;2022-07-23T11:43:20;5.43;;;2.70;;
13325;SDS011;6732;51.044;3.746;2022-07-23T11:45:48;4.43;;;2.67;;
13325;SDS011;6732;51.044;3.746;2022-07-23T11:48:22;3.90;;;2.50;;
13325;SDS011;6732;51.044;3.746;2022-07-23T11:50:53;2.97;;;2.67;;
13325;SDS011;6732;51.044;3.746;2022-07-23T11:55:49;3.03;;;2.60;;
13325;SDS011;6732;51.044;3.746;2022-07-23T11:58:15;4.53;;;2.42;;
13325;SDS011;6732;51.044;3.746;2022-07-23T12:00:41;2.78;;;2.28;;
13325;SDS011;6732;51.044;3.746;2022-07-23T12:03:07;3.35;;;2.50;;
13325;SDS011;6732;51.044;3.746;2022-07-23T12:05:37;2.70;;;2.38;;
13325;SDS011;6732;51.044;3.746;2022-07-23T12:08:04;3.67;;;2.63;;
13325;SDS011;6732;51.044;3.746;2022-07-23T12:13:03;4.43;;;2.70;;
13325;SDS011;6732;51.044;3.746;2022-07-23T12:15:38;3.00;;;2.55;;
13325;SDS011;6732;51.044;3.746;2022-07-23T12:18:08;2.63;;;2.42;;
13325;SDS011;6732;51.044;3.746;2022-07-23T12:20:46;2.95;;;2.70;;
13325;SDS011;6732;51.044;3.746;2022-07-23T12:23:18;4.03;;;2.80;;
13325;SDS011;6732;51.044;3.746;2022-07-23T12:25:45;3.88;;;2.78;;
13325;SDS011;6732;51.044;3.746;2022-07-23T12:28:20;4.20;;;3.17;;
13325;SDS011;6732;51.044;3.746;2022-07-23T12:30:54;3.92;;;3.00;;
13325;SDS011;6732;51.044;3.746;2022-07-23T12:33:31;4.60;;;2.90;;
13325;SDS011;6732;51.044;3.746;2022-07-23T12:36:00;4.07;;;2.60;;
13325;SDS011;6732;51.044;3.746;2022-07-23T12:38:38;5.50;;;2.70;;
13325;SDS011;6732;51.044;3.746;2022-07-23T12:41:09;2.90;;;2.60;;
13325;SDS011;6732;51.044;3.746;2022-07-23T12:43:36;4.43;;;2.83;;
13325;SDS011;6732;51.044;3.746;2022-07-23T12:48:33;3.03;;;2.28;;
13325;SDS011;6732;51.044;3.746;2022-07-23T12:51:21;4.30;;;2.78;;
13325;SDS011;6732;51.044;3.746;2022-07-23T12:53:49;3.38;;;3.00;;
13325;SDS011;6732;51.044;3.746;2022-07-23T12:56:22;5.43;;;3.15;;
13325;SDS011;6732;51.044;3.746;2022-07-23T13:01:27;4.80;;;3.08;;
13325;SDS011;6732;51.044;3.746;2022-07-23T13:06:27;4.63;;;3.05;;
13325;SDS011;6732;51.044;3.746;2022-07-23T13:09:04;3.67;;;3.28;;
13325;SDS011;6732;51.044;3.746;2022-07-23T13:11:32;5.07;;;3.25;;
13325;SDS011;6732;51.044;3.746;2022-07-23T13:13:58;3.38;;;3.08;;
13325;SDS011;6732;51.044;3.746;2022-07-23T13:16:26;4.72;;;3.00;;
13325;SDS011;6732;51.044;3.746;2022-07-23T13:18:52;3.45;;;2.80;;
13325;SDS011;6732;51.044;3.746;2022-07-23T13:21:18;5.10;;;3.70;;
13325;SDS011;6732;51.044;3.746;2022-07-23T13:23:44;4.97;;;3.20;;
13325;SDS011;6732;51.044;3.746;2022-07-23T13:26:10;4.55;;;4.05;;
13325;SDS011;6732;51.044;3.746;2022-07-23T13:28:36;6.00;;;3.55;;
13325;SDS011;6732;51.044;3.746;2022-07-23T13:31:02;6.03;;;3.70;;
13325;SDS011;6732;51.044;3.746;2022-07-23T13:33:29;3.95;;;3.55;;
13325;SDS011;6732;51.044;3.746;2022-07-23T13:35:55;3.95;;;3.28;;
13325;SDS011;6732;51.044;3.746;2022-07-23T13:38:21;3.40;;;3.10;;
13325;SDS011;6732;51.044;3.746;2022-07-23T13:40:48;3.30;;;3.00;;
13325;SDS011;6732;51.044;3.746;2022-07-23T13:43:16;4.97;;;3.55;;
13325;SDS011;6732;51.044;3.746;2022-07-23T13:45:44;4.07;;;3.30;;
13325;SDS011;6732;51.044;3.746;2022-07-23T13:48:11;3.50;;;3.10;;
13325;SDS011;6732;51.044;3.746;2022-07-23T13:50:39;3.50;;;3.20;;
13325;SDS011;6732;51.044;3.746;2022-07-23T13:53:07;4.47;;;3.33;;
13325;SDS011;6732;51.044;3.746;2022-07-23T13:55:36;6.15;;;3.63;;
13325;SDS011;6732;51.044;3.746;2022-07-23T13:58:03;4.03;;;3.35;;
13325;SDS011;6732;51.044;3.746;2022-07-23T14:00:31;5.57;;;3.30;;
13325;SDS011;6732;51.044;3.746;2022-07-23T14:02:58;4.80;;;3.15;;
13325;SDS011;6732;51.044;3.746;2022-07-23T14:05:25;3.35;;;2.95;;
13325;SDS011;6732;51.044;3.746;2022-07-23T14:07:51;5.47;;;3.35;;
13325;SDS011;6732;51.044;3.746;2022-07-23T14:10:18;3.60;;;2.95;;
13325;SDS011;6732;51.044;3.746;2022-07-23T14:12:46;3.75;;;3.25;;
13325;SDS011;6732;51.044;3.746;2022-07-23T14:15:13;5.40;;;3.42;;
13325;SDS011;6732;51.044;3.746;2022-07-23T14:17:40;4.35;;;3.60;;
13325;SDS011;6732;51.044;3.746;2022-07-23T14:20:08;4.00;;;3.55;;
13325;SDS011;6732;51.044;3.746;2022-07-23T14:22:35;5.32;;;3.30;;
13325;SDS011;6732;51.044;3.746;2022-07-23T14:25:02;4.60;;;3.30;;
13325;SDS011;6732;51.044;3.746;2022-07-23T14:27:29;4.72;;;2.90;;
13325;SDS011;6732;51.044;3.746;2022-07-23T14:29:55;4.03;;;3.25;;
13325;SDS011;6732;51.044;3.746;2022-07-23T14:32:22;4.10;;;3.13;;
13325;SDS011;6732;51.044;3.746;2022-07-23T14:34:48;5.22;;;3.42;;
13325;SDS011;6732;51.044;3.746;2022-07-23T14:37:15;6.90;;;3.15;;
13325;SDS011;6732;51.044;3.746;2022-07-23T14:39:41;6.13;;;3.47;;
13325;SDS011;6732;51.044;3.746;2022-07-23T14:42:08;6.60;;;3.78;;
13325;SDS011;6732;51.044;3.746;2022-07-23T14:44:35;5.25;;;3.90;;
13325;SDS011;6732;51.044;3.746;2022-07-23T14:47:02;6.50;;;3.92;;
13325;SDS011;6732;51.044;3.746;2022-07-23T14:49:31;5.10;;;3.67;;
13325;SDS011;6732;51.044;3.746;2022-07-23T14:52:01;4.43;;;3.75;;
13325;SDS011;6732;51.044;3.746;2022-07-23T14:54:28;4.57;;;3.40;;
13325;SDS011;6732;51.044;3.746;2022-07-23T14:56:54;4.30;;;3.90;;
13325;SDS011;6732;51.044;3.746;2022-07-23T14:59:22;3.70;;;3.40;;
13325;SDS011;6732;51.044;3.746;2022-07-23T15:01:48;5.70;;;3.80;;
13325;SDS011;6732;51.044;3.746;2022-07-23T15:04:14;4.30;;;3.40;;
13325;SDS011;6732;51.044;3.746;2022-07-23T15:06:41;4.88;;;3.70;;
13325;SDS011;6732;51.044;3.746;2022-07-23T15:09:07;5.95;;;3.63;;
13325;SDS011;6732;51.044;3.746;2022-07-23T15:11:33;4.18;;;3.80;;
13325;SDS011;6732;51.044;3.746;2022-07-23T15:14:00;4.88;;;4.10;;
13325;SDS011;6732;51.044;3.746;2022-07-23T15:16:26;5.78;;;4.25;;
13325;SDS011;6732;51.044;3.746;2022-07-23T15:18:53;5.95;;;4.13;;
13325;SDS011;6732;51.044;3.746;2022-07-23T15:21:19;6.03;;;4.40;;
13325;SDS011;6732;51.044;3.746;2022-07-23T15:23:46;5.68;;;4.45;;
13325;SDS011;6732;51.044;3.746;2022-07-23T15:26:12;5.55;;;4.30;;
13325;SDS011;6732;51.044;3.746;2022-07-23T15:28:39;4.40;;;4.10;;
13325;SDS011;6732;51.044;3.746;2022-07-23T15:31:05;6.60;;;4.35;;
13325;SDS011;6732;51.044;3.746;2022-07-23T15:33:31;5.45;;;4.60;;
13325;SDS011;6732;51.044;3.746;2022-07-23T15:35:58;5.53;;;4.70;;
13325;SDS011;6732;51.044;3.746;2022-07-23T15:38:25;5.13;;;4.30;;
13325;SDS011;6732;51.044;3.746;2022-07-23T15:40:52;5.47;;;4.97;;
13325;SDS011;6732;51.044;3.746;2022-07-23T15:43:22;4.47;;;4.00;;
13325;SDS011;6732;51.044;3.746;2022-07-23T15:45:50;5.00;;;4.50;;